Ana Sayfa
METAR-TAF:

METAR-TAF

Havaalanları :

Moroni, Komor Adaları

Enlem: 11-32S, Boylam: 043-16E, yükseklik: 29 m

Güncel hava durumu gözlemi

Rapor saat 05:00 UTC de 8 saat ve 42 dakika önce yapıldı.
Rüzgar değişken yönden 3 kt
Sıcaklık 26°C
Nem 65%
Basınç 1019 hPa
Görüş mesafesi 10 km veya daha fazla
2000 ft yükseklikte az bulutlu

METAR: FMCH 210500Z VRB03KT 9999 FEW020 26/19 Q1019 NOSIG

Saat: 16:42 (13:42 UTC)

Tahmin

Rapor saat 05:00 UTC de 8 saat ve 42 dakika önce yapıldı.
Ayın 21'si saat 06 UTC'den ayın 22'si saat 12 UTC'ye kadar geçerli Tahmin
Rüzgar batı/güneybatıdan 12 kt
Görüş mesafesi 10 km veya daha fazla
2300 ft yükseklikte az bulutlu
3000 ft yükseklikte parçalı bulutlu
Dönüşüyor
ayın 21'si saat 15 UTC'den ayın 21'si saat 17 UTC'ye kadar
Rüzgar doğudan 5 kt
Dönüşüyor
ayın 22'si saat 05 UTC'den ayın 22'si saat 07 UTC'ye kadar
Rüzgar batı/güneybatıdan 10 kt

TAF: FMCH 210500Z 2106/2212 25012KT 9999 FEW023 SCT030 BECMG 2115/2117 09005KT BECMG 2205/2207 24010KT

4.000'den fazla havaalanı için hava durumu gözlemleri ve tahminleri (METAR ve TAF raporları).

Kullanılabilir istasyonlar harita üzerinde sarı ve kırmızı noktalarla gösterilir.

İstasyonun adını görmek için fareyi noktanın üzerinde gezdirin.

Sonrasında hava gözlem ve tahminlerini görmek için tıklayın.

Haritayı değiştirmek için: yaklaştırmak için siyah artı işaretli yeşil düğmeye ve uzaklaştırmak için de eksi işaretli düğmeye hızla tıklayın; bitişik haritalar için yeşil okları kullanın.


METAR-TAF: